createdAt,value
2018-09-01T00:01:30.335Z,6.23
2018-09-01T00:04:00.945Z,3.80
2018-09-01T00:06:31.583Z,3.83
2018-09-01T00:09:02.291Z,4.60
2018-09-01T00:11:33.030Z,4.37
2018-09-01T00:14:03.694Z,4.53
2018-09-01T00:16:34.595Z,2.73
2018-09-01T00:19:05.202Z,5.60
2018-09-01T00:21:35.851Z,3.73
2018-09-01T00:24:12.560Z,3.60
2018-09-01T00:26:44.004Z,3.30
2018-09-01T00:29:14.627Z,4.57
2018-09-01T00:31:45.287Z,3.43
2018-09-01T00:34:15.888Z,5.90
2018-09-01T00:36:46.551Z,3.10
2018-09-01T00:39:17.212Z,2.73
2018-09-01T00:41:47.880Z,5.73
2018-09-01T00:44:18.540Z,5.30
2018-09-01T00:46:49.218Z,3.13
2018-09-01T00:49:19.874Z,3.33
2018-09-01T00:51:50.487Z,6.13
2018-09-01T00:54:21.218Z,3.77
2018-09-01T00:56:51.846Z,3.37
2018-09-01T00:59:22.573Z,6.97
2018-09-01T01:01:53.183Z,4.57
2018-09-01T01:04:23.879Z,2.67
2018-09-01T01:06:54.495Z,3.27
2018-09-01T01:09:25.252Z,3.90
2018-09-01T01:11:55.900Z,4.47
2018-09-01T01:14:26.574Z,4.90
2018-09-01T01:16:57.165Z,3.33
2018-09-01T01:19:27.817Z,6.27
2018-09-01T01:21:58.449Z,4.67
2018-09-01T01:24:29.064Z,4.57
2018-09-01T01:26:59.672Z,3.83
2018-09-01T01:29:30.344Z,4.07
2018-09-01T01:32:00.988Z,3.93
2018-09-01T01:34:31.658Z,4.13
2018-09-01T01:37:02.280Z,3.70
2018-09-01T01:39:32.924Z,4.43
2018-09-01T01:42:03.575Z,5.23
2018-09-01T01:44:34.287Z,4.97
2018-09-01T01:47:04.949Z,3.97
2018-09-01T01:49:35.601Z,3.30
2018-09-01T01:52:06.234Z,3.77
2018-09-01T01:54:36.885Z,2.67
2018-09-01T01:57:07.584Z,3.33
2018-09-01T01:59:38.267Z,3.27
2018-09-01T02:02:08.948Z,3.90
2018-09-01T02:04:39.720Z,2.70
2018-09-01T02:07:10.325Z,5.13
2018-09-01T02:09:41.081Z,2.93
2018-09-01T02:12:11.739Z,4.40
2018-09-01T02:14:42.364Z,4.33
2018-09-01T02:17:13.061Z,4.87
2018-09-01T02:19:43.675Z,6.23
2018-09-01T02:22:14.498Z,4.60
2018-09-01T02:24:45.124Z,4.03
2018-09-01T02:27:15.775Z,6.20
2018-09-01T02:29:46.450Z,3.43
2018-09-01T02:32:17.046Z,4.33
2018-09-01T02:34:47.709Z,5.00
2018-09-01T02:37:18.323Z,3.13
2018-09-01T02:39:48.977Z,4.33
2018-09-01T02:42:19.649Z,5.57
2018-09-01T02:44:50.288Z,4.03
2018-09-01T02:47:20.896Z,2.83
2018-09-01T02:49:51.594Z,6.47
2018-09-01T02:52:22.444Z,4.40
2018-09-01T02:54:53.132Z,3.93
2018-09-01T02:57:23.832Z,4.63
2018-09-01T02:59:54.466Z,4.30
2018-09-01T03:02:30.314Z,6.07
2018-09-01T03:05:00.925Z,8.10
2018-09-01T03:07:31.511Z,5.77
2018-09-01T03:10:02.167Z,5.50
2018-09-01T03:12:32.816Z,6.00
2018-09-01T03:15:03.440Z,6.40
2018-09-01T03:17:34.111Z,4.97
2018-09-01T03:20:04.796Z,6.53
2018-09-01T03:22:35.450Z,5.03
2018-09-01T03:25:06.677Z,6.47
2018-09-01T03:27:37.354Z,5.77
2018-09-01T03:30:08.127Z,4.47
2018-09-01T03:32:38.751Z,4.40
2018-09-01T03:35:09.453Z,7.83
2018-09-01T03:37:40.030Z,5.43
2018-09-01T03:40:10.708Z,5.30
2018-09-01T03:42:41.301Z,4.70
2018-09-01T03:45:12.019Z,5.30
2018-09-01T03:47:42.631Z,4.57
2018-09-01T03:50:13.344Z,4.10
2018-09-01T03:52:43.980Z,5.60
2018-09-01T03:55:14.828Z,5.00
2018-09-01T03:57:45.642Z,6.77
2018-09-01T04:00:16.266Z,3.43
2018-09-01T04:02:46.862Z,5.10
2018-09-01T04:05:17.495Z,6.77
2018-09-01T04:07:48.094Z,7.70
2018-09-01T04:10:18.783Z,4.80
2018-09-01T04:12:49.675Z,5.00
2018-09-01T04:15:20.333Z,6.73
2018-09-01T04:17:50.941Z,7.57
2018-09-01T04:20:21.683Z,5.10
2018-09-01T04:22:52.308Z,5.40
2018-09-01T04:25:23.025Z,5.87
2018-09-01T04:27:53.670Z,6.30
2018-09-01T04:30:24.320Z,4.07
2018-09-01T04:32:54.975Z,5.37
2018-09-01T04:35:25.626Z,5.47
2018-09-01T04:37:56.314Z,4.67
2018-09-01T04:40:26.900Z,6.30
2018-09-01T04:42:57.563Z,5.30
2018-09-01T04:45:28.320Z,7.17
2018-09-01T04:47:58.965Z,6.03
2018-09-01T04:50:29.679Z,6.30
2018-09-01T04:53:00.352Z,4.77
2018-09-01T04:55:31.020Z,5.13
2018-09-01T04:58:01.708Z,5.80
2018-09-01T05:00:32.396Z,6.00
2018-09-01T05:03:03.039Z,7.00
2018-09-01T05:05:33.666Z,8.80
2018-09-01T05:08:04.346Z,5.77
2018-09-01T05:10:34.926Z,5.70
2018-09-01T05:13:05.587Z,5.80
2018-09-01T05:15:36.232Z,5.13
2018-09-01T05:18:06.871Z,6.13
2018-09-01T05:20:37.513Z,4.80
2018-09-01T05:23:08.146Z,5.50
2018-09-01T05:25:38.788Z,5.87
2018-09-01T05:28:09.545Z,5.03
2018-09-01T05:30:40.192Z,6.07
2018-09-01T05:33:10.920Z,7.40
2018-09-01T05:35:41.637Z,5.40
2018-09-01T05:38:12.341Z,4.97
2018-09-01T05:40:42.992Z,4.67
2018-09-01T05:43:13.662Z,5.40
2018-09-01T05:45:44.307Z,5.40
2018-09-01T05:48:14.920Z,6.70
2018-09-01T05:50:45.647Z,7.40
2018-09-01T05:53:16.128Z,6.13
2018-09-01T05:55:46.812Z,4.23
2018-09-01T05:58:17.476Z,6.77
2018-09-01T06:00:48.357Z,8.57
2018-09-01T06:03:19.365Z,7.13
2018-09-01T06:05:49.952Z,6.83
2018-09-01T06:08:20.645Z,6.60
2018-09-01T06:10:51.299Z,6.80
2018-09-01T06:13:21.928Z,7.20
2018-09-01T06:15:52.559Z,4.20
2018-09-01T06:18:23.215Z,6.33
2018-09-01T06:20:53.925Z,8.03
2018-09-01T06:23:24.496Z,7.13
2018-09-01T06:25:55.144Z,7.23
2018-09-01T06:28:33.282Z,6.80
2018-09-01T06:31:03.976Z,7.03
2018-09-01T06:33:34.764Z,9.03
2018-09-01T06:36:05.670Z,7.97
2018-09-01T06:38:36.324Z,5.60
2018-09-01T06:41:07.288Z,7.20
2018-09-01T06:43:37.905Z,6.73
2018-09-01T06:46:08.723Z,8.33
2018-09-01T06:48:39.347Z,5.03
2018-09-01T06:51:10.020Z,6.33
2018-09-01T06:53:40.705Z,6.13
2018-09-01T06:56:11.447Z,7.13
2018-09-01T06:58:42.107Z,8.90
2018-09-01T07:01:12.744Z,6.80
2018-09-01T07:03:43.370Z,5.43
2018-09-01T07:06:14.062Z,7.20
2018-09-01T07:08:44.751Z,5.03
2018-09-01T07:11:15.380Z,6.00
2018-09-01T07:13:46.060Z,8.43
2018-09-01T07:16:16.732Z,6.80
2018-09-01T07:18:47.425Z,7.63
2018-09-01T07:21:18.151Z,9.43
2018-09-01T07:23:48.783Z,4.63
2018-09-01T07:26:19.414Z,4.20
2018-09-01T07:28:50.083Z,7.73
2018-09-01T07:31:21.208Z,7.30
2018-09-01T07:33:51.500Z,5.43
2018-09-01T07:36:22.238Z,4.23
2018-09-01T07:38:52.915Z,4.83
2018-09-01T07:41:23.572Z,5.83
2018-09-01T07:43:54.231Z,3.23
2018-09-01T07:46:24.850Z,4.40
2018-09-01T07:48:55.543Z,4.53
2018-09-01T07:51:26.235Z,3.83
2018-09-01T07:53:56.868Z,4.07
2018-09-01T07:56:27.526Z,4.47
2018-09-01T07:58:58.220Z,4.17
2018-09-01T08:01:28.934Z,3.60
2018-09-01T08:03:59.614Z,3.13
2018-09-01T08:06:30.259Z,3.70
2018-09-01T08:09:00.905Z,3.67
2018-09-01T08:11:31.629Z,2.87
2018-09-01T08:14:02.416Z,2.40
2018-09-01T08:16:32.998Z,3.87
2018-09-01T08:19:03.672Z,4.20
2018-09-01T08:21:34.320Z,4.93
2018-09-01T08:24:05.076Z,3.50
2018-09-01T08:26:35.760Z,2.80
2018-09-01T08:29:06.597Z,3.53
2018-09-01T08:31:37.314Z,2.70
2018-09-01T08:34:08.008Z,9.23
2018-09-01T08:36:38.649Z,5.80
2018-09-01T08:39:10.033Z,5.87
2018-09-01T08:41:40.755Z,3.73
2018-09-01T08:44:11.497Z,2.23
2018-09-01T08:46:42.355Z,4.43
2018-09-01T08:49:13.015Z,3.60
2018-09-01T08:51:43.686Z,3.53
2018-09-01T08:54:14.348Z,4.93
2018-09-01T08:56:45.023Z,10.07
2018-09-01T08:59:15.679Z,3.53
2018-09-01T09:01:46.327Z,3.17
2018-09-01T09:04:17.008Z,2.90
2018-09-01T09:06:47.643Z,1.77
2018-09-01T09:09:18.311Z,2.23
2018-09-01T09:11:49.059Z,2.50
2018-09-01T09:14:19.732Z,3.87
2018-09-01T09:16:50.484Z,5.03
2018-09-01T09:19:21.133Z,2.77
2018-09-01T09:21:52.146Z,6.67
2018-09-01T09:24:22.803Z,3.70
2018-09-01T09:26:53.454Z,3.93
2018-09-01T09:29:24.192Z,4.07
2018-09-01T09:31:55.023Z,2.33
2018-09-01T09:34:25.691Z,2.43
2018-09-01T09:36:56.467Z,2.03
2018-09-01T09:39:27.114Z,2.13
2018-09-01T09:41:57.942Z,2.53
2018-09-01T09:44:28.776Z,2.40
2018-09-01T09:46:59.776Z,1.50
2018-09-01T09:49:30.536Z,2.70
2018-09-01T09:52:01.160Z,2.03
2018-09-01T09:54:31.900Z,1.60
2018-09-01T09:57:02.542Z,2.93
2018-09-01T09:59:33.220Z,1.63
2018-09-01T10:02:05.443Z,2.07
2018-09-01T10:04:36.070Z,4.10
2018-09-01T10:07:06.835Z,1.83
2018-09-01T10:09:37.665Z,1.47
2018-09-01T10:12:08.923Z,1.67
2018-09-01T10:14:39.632Z,2.80
2018-09-01T10:17:10.326Z,2.20
2018-09-01T10:19:41.156Z,1.50
2018-09-01T10:22:11.910Z,2.47
2018-09-01T10:24:42.588Z,1.53
2018-09-01T10:27:13.308Z,2.33
2018-09-01T10:29:44.021Z,2.13
2018-09-01T10:32:14.740Z,1.37
2018-09-01T10:34:45.489Z,1.03
2018-09-01T10:37:16.133Z,2.30
2018-09-01T10:39:46.757Z,3.63
2018-09-01T10:42:17.405Z,2.40
2018-09-01T10:44:48.083Z,2.43
2018-09-01T10:47:18.730Z,2.10
2018-09-01T10:49:49.417Z,1.57
2018-09-01T10:52:20.436Z,1.67
2018-09-01T10:54:51.108Z,2.93
2018-09-01T10:57:21.806Z,1.30
2018-09-01T10:59:52.551Z,2.07
2018-09-01T11:02:23.262Z,2.30
2018-09-01T11:04:53.898Z,5.10
2018-09-01T11:07:24.895Z,3.50
2018-09-01T11:09:55.553Z,1.53
2018-09-01T11:12:26.191Z,1.13
2018-09-01T11:14:56.860Z,0.70
2018-09-01T11:17:27.640Z,2.00
2018-09-01T11:19:58.279Z,2.13
2018-09-01T11:22:29.052Z,1.43
2018-09-01T11:24:59.749Z,2.63
2018-09-01T11:27:30.544Z,1.60
2018-09-01T11:30:01.172Z,2.70
2018-09-01T11:32:31.872Z,2.70
2018-09-01T11:35:02.493Z,2.53
2018-09-01T11:37:33.140Z,2.23
2018-09-01T11:40:03.857Z,1.67
2018-09-01T11:42:34.677Z,3.73
2018-09-01T11:45:05.354Z,1.27
2018-09-01T11:47:36.018Z,2.40
2018-09-01T11:50:06.830Z,2.33
2018-09-01T11:52:37.551Z,1.97
2018-09-01T11:55:08.398Z,2.80
2018-09-01T11:57:39.127Z,2.17
2018-09-01T12:00:09.863Z,1.83
2018-09-01T12:02:40.563Z,1.10
2018-09-01T12:05:11.243Z,0.90
2018-09-01T12:07:41.893Z,2.50
2018-09-01T12:10:12.563Z,3.47
2018-09-01T12:12:43.227Z,3.63
2018-09-01T12:15:13.842Z,1.87
2018-09-01T12:17:44.526Z,2.83
2018-09-01T12:20:15.235Z,2.50
2018-09-01T12:22:45.867Z,1.57
2018-09-01T12:25:16.476Z,2.90
2018-09-01T12:27:47.137Z,1.13
2018-09-01T12:30:17.808Z,2.07
2018-09-01T12:32:48.494Z,1.87
2018-09-01T12:35:19.139Z,3.60
2018-09-01T12:37:49.826Z,2.70
2018-09-01T12:40:20.491Z,2.07
2018-09-01T12:42:51.257Z,2.73
2018-09-01T12:45:21.869Z,1.70
2018-09-01T12:47:52.696Z,4.63
2018-09-01T12:50:23.429Z,2.77
2018-09-01T12:52:54.139Z,3.50
2018-09-01T12:55:24.797Z,2.17
2018-09-01T12:57:55.409Z,3.17
2018-09-01T13:00:26.081Z,1.57
2018-09-01T13:02:56.829Z,2.50
2018-09-01T13:05:27.509Z,1.57
2018-09-01T13:07:58.157Z,3.57
2018-09-01T13:10:28.829Z,2.20
2018-09-01T13:12:59.522Z,3.23
2018-09-01T13:15:30.209Z,1.53
2018-09-01T13:18:00.841Z,3.40
2018-09-01T13:20:31.566Z,2.03
2018-09-01T13:23:02.360Z,2.60
2018-09-01T13:25:33.096Z,3.77
2018-09-01T13:28:03.857Z,2.53
2018-09-01T13:30:34.563Z,1.87
2018-09-01T13:33:05.283Z,1.80
2018-09-01T13:35:36.024Z,1.77
2018-09-01T13:38:06.780Z,2.97
2018-09-01T13:40:37.869Z,1.17
2018-09-01T13:43:08.610Z,1.87
2018-09-01T13:45:39.502Z,1.73
2018-09-01T13:48:11.523Z,3.77
2018-09-01T13:50:42.555Z,2.00
2018-09-01T13:53:13.711Z,1.87
2018-09-01T13:55:44.424Z,1.63
2018-09-01T13:58:46.068Z,1.43
2018-09-01T14:01:16.735Z,2.07
2018-09-01T14:03:47.846Z,2.77
2018-09-01T14:06:18.712Z,3.13
2018-09-01T14:08:49.780Z,2.50
2018-09-01T14:11:20.584Z,3.60
2018-09-01T14:13:51.256Z,2.90
2018-09-01T14:16:22.053Z,3.60
2018-09-01T14:18:52.896Z,1.90
2018-09-01T14:21:23.815Z,2.40
2018-09-01T14:23:55.163Z,1.90
2018-09-01T14:26:25.919Z,1.20
2018-09-01T14:28:57.449Z,2.83
2018-09-01T14:31:28.315Z,2.80
2018-09-01T14:33:58.968Z,4.10
2018-09-01T14:36:29.782Z,2.07
2018-09-01T14:39:00.522Z,2.63
2018-09-01T14:41:31.659Z,3.07
2018-09-01T14:44:02.661Z,3.77
2018-09-01T14:46:33.468Z,2.60
2018-09-01T14:49:04.162Z,3.37
2018-09-01T14:51:35.249Z,2.70
2018-09-01T14:54:06.078Z,1.93
2018-09-01T14:56:37.409Z,1.47
2018-09-01T14:59:09.064Z,3.33
2018-09-01T15:01:39.691Z,3.03
2018-09-01T15:04:10.888Z,3.20
2018-09-01T15:06:42.436Z,2.17
2018-09-01T15:09:13.127Z,4.47
2018-09-01T15:11:44.085Z,2.17
2018-09-01T15:14:15.237Z,4.03
2018-09-01T15:16:46.027Z,3.80
2018-09-01T15:19:16.823Z,3.23
2018-09-01T15:21:47.601Z,1.43
2018-09-01T15:24:18.631Z,2.20
2018-09-01T15:26:49.862Z,2.73
2018-09-01T15:29:21.145Z,2.40
2018-09-01T15:31:52.314Z,3.57
2018-09-01T15:34:23.550Z,2.97
2018-09-01T15:36:54.292Z,1.90
2018-09-01T15:39:25.113Z,2.10
2018-09-01T15:41:56.485Z,2.63
2018-09-01T15:44:27.399Z,3.07
2018-09-01T15:46:58.144Z,3.83
2018-09-01T15:49:28.795Z,2.47
2018-09-01T15:51:59.479Z,4.07
2018-09-01T15:54:30.142Z,2.23
2018-09-01T15:57:00.826Z,4.13
2018-09-01T15:59:31.460Z,2.40
2018-09-01T16:02:02.171Z,2.07
2018-09-01T16:04:32.820Z,3.37
2018-09-01T16:07:03.576Z,3.57
2018-09-01T16:09:34.269Z,4.10
2018-09-01T16:12:04.919Z,2.53
2018-09-01T16:14:35.560Z,2.33
2018-09-01T16:17:06.791Z,2.10
2018-09-01T16:19:37.465Z,2.17
2018-09-01T16:22:08.133Z,4.13
2018-09-01T16:24:38.834Z,4.80
2018-09-01T16:27:09.571Z,3.97
2018-09-01T16:29:40.288Z,1.40
2018-09-01T16:32:10.967Z,5.20
2018-09-01T16:34:41.683Z,2.97
2018-09-01T16:37:12.351Z,3.20
2018-09-01T16:39:43.075Z,2.97
2018-09-01T16:42:13.767Z,3.30
2018-09-01T16:44:44.463Z,1.90
2018-09-01T16:47:15.134Z,1.80
2018-09-01T16:49:45.836Z,1.47
2018-09-01T16:52:16.579Z,3.70
2018-09-01T16:54:47.228Z,3.33
2018-09-01T16:57:17.876Z,3.07
2018-09-01T16:59:48.652Z,5.13
2018-09-01T17:02:19.283Z,4.57
2018-09-01T17:04:49.957Z,2.33
2018-09-01T17:07:20.576Z,2.73
2018-09-01T17:09:51.351Z,3.37
2018-09-01T17:12:22.046Z,2.57
2018-09-01T17:14:52.750Z,3.87
2018-09-01T17:17:23.371Z,5.20
2018-09-01T17:19:54.093Z,3.53
2018-09-01T17:22:24.708Z,3.37
2018-09-01T17:24:55.458Z,2.60
2018-09-01T17:27:26.182Z,3.03
2018-09-01T17:29:56.832Z,4.00
2018-09-01T17:32:27.553Z,5.07
2018-09-01T17:34:58.160Z,3.47
2018-09-01T17:37:28.835Z,3.07
2018-09-01T17:39:59.459Z,3.17
2018-09-01T17:42:30.143Z,2.90
2018-09-01T17:45:00.865Z,3.00
2018-09-01T17:47:31.504Z,2.80
2018-09-01T17:50:02.171Z,2.07
2018-09-01T17:52:32.833Z,2.93
2018-09-01T17:55:03.627Z,2.63
2018-09-01T17:57:34.399Z,2.97
2018-09-01T18:00:05.192Z,4.97
2018-09-01T18:02:35.894Z,3.13
2018-09-01T18:05:06.841Z,3.57
2018-09-01T18:07:37.645Z,5.53
2018-09-01T18:10:08.350Z,2.80
2018-09-01T18:12:39.034Z,5.43
2018-09-01T18:15:09.775Z,3.67
2018-09-01T18:17:40.478Z,2.57
2018-09-01T18:20:11.161Z,3.73
2018-09-01T18:22:41.832Z,3.50
2018-09-01T18:25:12.553Z,4.03
2018-09-01T18:27:43.187Z,4.33
2018-09-01T18:31:17.101Z,4.03
2018-09-01T18:33:47.851Z,2.67
2018-09-01T18:36:18.615Z,2.50
2018-09-01T18:38:49.275Z,3.33
2018-09-01T18:41:19.971Z,2.87
2018-09-01T18:43:50.617Z,3.50
2018-09-01T18:46:21.332Z,4.27
2018-09-01T18:48:52.021Z,3.83
2018-09-01T18:51:22.658Z,2.60
2018-09-01T18:53:59.827Z,7.10
2018-09-01T18:56:30.538Z,5.40
2018-09-01T18:59:01.255Z,4.07
2018-09-01T19:01:31.993Z,3.47
2018-09-01T19:04:02.671Z,3.17
2018-09-01T19:06:33.350Z,5.43
2018-09-01T19:09:05.785Z,3.93
2018-09-01T19:11:37.017Z,2.67
2018-09-01T19:14:07.695Z,3.10
2018-09-01T19:16:38.393Z,3.73
2018-09-01T19:19:09.108Z,4.03
2018-09-01T19:21:39.770Z,4.57
2018-09-01T19:24:10.529Z,3.37
2018-09-01T19:26:41.231Z,5.60
2018-09-01T19:29:11.949Z,5.50
2018-09-01T19:31:42.774Z,6.67
2018-09-01T19:34:13.541Z,4.43
2018-09-01T19:36:44.213Z,4.93
2018-09-01T19:39:14.905Z,3.07
2018-09-01T19:41:45.588Z,3.00
2018-09-01T19:44:16.298Z,3.43
2018-09-01T19:46:47.022Z,6.97
2018-09-01T19:49:17.719Z,4.57
2018-09-01T19:51:48.529Z,3.70
2018-09-01T19:54:19.238Z,3.67
2018-09-01T19:56:50.000Z,3.33
2018-09-01T19:59:20.736Z,5.03
2018-09-01T20:01:51.425Z,2.53
2018-09-01T20:04:22.165Z,5.97
2018-09-01T20:06:52.899Z,4.03
2018-09-01T20:09:23.595Z,3.87
2018-09-01T20:11:54.427Z,7.33
2018-09-01T20:14:25.311Z,4.20
2018-09-01T20:16:56.001Z,4.67
2018-09-01T20:19:26.741Z,4.73
2018-09-01T20:21:57.421Z,4.60
2018-09-01T20:24:28.085Z,4.83
2018-09-01T20:26:58.820Z,5.57
2018-09-01T20:29:29.522Z,3.77
2018-09-01T20:32:00.298Z,4.00
2018-09-01T20:34:30.983Z,3.53
2018-09-01T20:37:01.668Z,3.17
2018-09-01T20:39:32.453Z,2.97
2018-09-01T20:42:03.182Z,6.77
2018-09-01T20:44:33.871Z,6.33
2018-09-01T20:47:05.015Z,4.57
2018-09-01T20:49:35.677Z,3.83
2018-09-01T20:52:06.539Z,2.70
2018-09-01T20:54:37.177Z,2.67
2018-09-01T20:57:08.104Z,2.60
2018-09-01T20:59:38.857Z,4.23
2018-09-01T21:02:09.660Z,3.37
2018-09-01T21:04:40.357Z,2.90
2018-09-01T21:07:11.033Z,4.27
2018-09-01T21:09:41.727Z,3.43
2018-09-01T21:12:12.488Z,4.30
2018-09-01T21:14:43.188Z,5.73
2018-09-01T21:17:13.892Z,4.27
2018-09-01T21:19:44.579Z,4.13
2018-09-01T21:22:15.359Z,3.37
2018-09-01T21:24:46.170Z,2.43
2018-09-01T21:27:16.823Z,3.93
2018-09-01T21:29:47.518Z,5.97
2018-09-01T21:32:18.227Z,5.37
2018-09-01T21:34:48.910Z,5.00
2018-09-01T21:37:19.583Z,5.73
2018-09-01T21:39:50.308Z,4.10
2018-09-01T21:42:21.029Z,5.53
2018-09-01T21:44:51.727Z,3.73
2018-09-01T21:47:22.489Z,4.00
2018-09-01T21:49:53.198Z,4.00
2018-09-01T21:52:23.914Z,3.87
2018-09-01T21:54:54.613Z,3.27
2018-09-01T21:57:25.354Z,3.93
2018-09-01T21:59:56.097Z,4.13
2018-09-01T22:02:27.543Z,3.07
2018-09-01T22:05:03.412Z,4.43
2018-09-01T22:07:34.179Z,5.00
2018-09-01T22:10:05.077Z,4.27
2018-09-01T22:12:36.022Z,4.00
2018-09-01T22:15:07.574Z,5.57
2018-09-01T22:17:38.318Z,4.30
2018-09-01T22:20:09.013Z,3.87
2018-09-01T22:22:39.769Z,5.27
2018-09-01T22:25:10.416Z,4.73
2018-09-01T22:27:41.160Z,5.43
2018-09-01T22:30:11.921Z,4.57
2018-09-01T22:32:42.592Z,5.20
2018-09-01T22:35:13.402Z,3.50
2018-09-01T22:37:44.074Z,4.33
2018-09-01T22:40:14.824Z,3.47
2018-09-01T22:42:45.478Z,6.43
2018-09-01T22:45:16.195Z,4.20
2018-09-01T22:47:46.911Z,3.57
2018-09-01T22:50:17.625Z,7.37
2018-09-01T22:52:48.321Z,7.30
2018-09-01T22:55:19.048Z,4.30
2018-09-01T22:57:49.676Z,4.27
2018-09-01T23:00:20.365Z,6.87
2018-09-01T23:02:51.092Z,4.50
2018-09-01T23:05:21.805Z,5.30
2018-09-01T23:07:52.443Z,6.67
2018-09-01T23:10:23.221Z,4.23
2018-09-01T23:12:53.943Z,4.87
2018-09-01T23:15:24.596Z,5.10
2018-09-01T23:17:55.273Z,5.77
2018-09-01T23:20:26.004Z,4.37
2018-09-01T23:22:56.693Z,3.87
2018-09-01T23:25:27.338Z,5.93
2018-09-01T23:27:58.029Z,5.03
2018-09-01T23:30:28.724Z,5.43
2018-09-01T23:32:59.427Z,4.10
2018-09-01T23:35:30.151Z,3.87
2018-09-01T23:38:00.833Z,2.93
2018-09-01T23:40:31.476Z,5.87
2018-09-01T23:43:02.151Z,3.17
2018-09-01T23:45:32.830Z,3.57
2018-09-01T23:48:03.515Z,3.30
2018-09-01T23:50:34.236Z,3.97
2018-09-01T23:53:04.953Z,4.67
2018-09-01T23:55:35.612Z,4.97
2018-09-01T23:58:06.816Z,5.20
